Time;durP1;ratioP1;P1;durP2;ratioP2;P2;SDS_P1;SDS_P2;PMS_P1;PMS_P2;Temp;Humidity;BMP_temperature;BMP_pressure;BME280_temperature;BME280_humidity;BME280_pressure;Samples;Min_cycle;Max_cycle;Signal;HPM_P1;HPM_P2
2022/01/25 00:10:39;;;;;;;18.58;12.73;;;;;;;-0.26;75.30;100488.66;2618723;54;20046;-63
2022/01/25 00:26:58;;;;;;;15.65;9.82;;;;;;;-0.41;75.17;100482.53;2617966;54;20090;-63
2022/01/25 00:29:35;;;;;;;20.77;11.73;;;;;;;-0.32;75.06;100484.63;2618741;54;20037;-64
2022/01/25 00:32:06;;;;;;;19.23;10.68;;;;;;;-0.41;74.86;100481.66;2618952;54;20041;-64
2022/01/25 00:34:36;;;;;;;15.85;10.38;;;;;;;-0.42;75.09;100477.41;2622654;54;20561;-64
2022/01/25 00:37:06;;;;;;;15.70;11.00;;;;;;;-0.33;75.69;100482.97;2621482;54;20027;-64
2022/01/25 00:39:37;;;;;;;18.35;10.65;;;;;;;-0.26;75.73;100473.88;2622212;54;20037;-64
2022/01/25 00:42:11;;;;;;;15.70;10.00;;;;;;;-0.20;75.49;100483.13;2622655;54;20042;-63
2022/01/25 00:44:45;;;;;;;16.65;11.10;;;;;;;-0.28;75.24;100486.13;2620409;54;20046;-63
2022/01/25 00:47:16;;;;;;;19.08;12.15;;;;;;;-0.35;74.71;100484.78;2620613;54;20034;-63
2022/01/25 00:49:51;;;;;;;18.63;11.05;;;;;;;-0.45;74.78;100478.41;2620592;39;20441;-64
2022/01/25 00:53:52;;;;;;;15.00;10.80;;;;;;;-0.49;75.19;100482.09;2618524;54;20062;-63
2022/01/25 00:55:11;;;;;;;17.50;11.40;;;;;;;-0.57;75.29;100484.25;2617980;47;20790;-63
2022/01/25 00:57:43;;;;;;;16.38;11.07;;;;;;;-0.63;75.53;100479.38;2621913;54;20569;-63
2022/01/25 01:00:14;;;;;;;16.98;10.05;;;;;;;-0.59;75.38;100479.13;2622312;54;20041;-64
2022/01/25 01:02:44;;;;;;;16.25;10.43;;;;;;;-0.61;75.48;100482.75;2622156;54;20045;-64
2022/01/25 01:05:14;;;;;;;17.15;9.85;;;;;;;-0.58;75.69;100480.78;2619153;54;20038;-64
2022/01/25 01:07:44;;;;;;;15.35;9.90;;;;;;;-0.59;75.30;100478.28;2618533;54;20038;-62
2022/01/25 01:10:21;;;;;;;15.50;10.18;;;;;;;-0.68;74.97;100487.41;2619032;54;20038;-63
2022/01/25 01:15:55;;;;;;;17.40;10.45;;;;;;;-0.85;75.74;100492.63;2617231;54;20038;-63
2022/01/25 01:29:44;;;;;;;15.75;9.63;;;;;;;-0.57;75.45;100512.84;2618288;39;20430;-63
2022/01/25 01:32:35;;;;;;;16.23;9.85;;;;;;;-0.52;75.63;100514.25;2618247;54;20035;-63
2022/01/25 01:35:29;;;;;;;13.65;9.13;;;;;;;-0.43;75.30;100509.50;2618559;54;20050;-64
2022/01/25 01:38:18;;;;;;;16.42;9.77;;;;;;;-0.41;75.11;100508.50;2618108;54;20035;-64
2022/01/25 01:41:01;;;;;;;16.42;10.30;;;;;;;-0.51;74.78;100502.94;2618314;54;20049;-64
2022/01/25 01:43:33;;;;;;;16.13;10.40;;;;;;;-0.57;74.86;100502.44;2618256;54;20041;-64
2022/01/25 01:46:29;;;;;;;19.38;12.07;;;;;;;-0.65;75.22;100507.19;2617922;54;20045;-64
2022/01/25 01:49:00;;;;;;;16.30;10.25;;;;;;;-0.76;74.93;100502.53;2617423;47;20034;-64
2022/01/25 01:51:35;;;;;;;18.17;10.55;;;;;;;-0.82;74.77;100508.91;2617717;54;20057;-64
2022/01/25 01:54:07;;;;;;;18.63;10.63;;;;;;;-0.86;75.64;100507.38;2618142;54;20034;-64
2022/01/25 01:56:39;;;;;;;15.63;10.95;;;;;;;-0.77;75.74;100506.06;2617899;54;20034;-64
2022/01/25 01:59:15;;;;;;;15.52;9.63;;;;;;;-0.70;75.30;100509.16;2617480;47;20038;-65
2022/01/25 02:01:49;;;;;;;14.57;10.20;;;;;;;-0.64;75.35;100511.47;2618408;54;20546;-63
2022/01/25 02:04:20;;;;;;;13.98;9.85;;;;;;;-0.70;75.31;100514.38;2618425;54;20534;-63
2022/01/25 02:06:50;;;;;;;18.20;11.35;;;;;;;-0.77;75.40;100508.66;2618128;54;20045;-64
2022/01/25 02:09:19;;;;;;;14.48;10.20;;;;;;;-0.81;75.21;100510.56;2618783;54;20045;-64
2022/01/25 02:11:49;;;;;;;16.67;11.55;;;;;;;-0.85;75.55;100510.81;2619347;39;20439;-64
2022/01/25 02:14:19;;;;;;;15.85;11.18;;;;;;;-0.85;75.51;100503.03;2618909;54;20031;-65
2022/01/25 02:17:06;;;;;;;17.75;10.90;;;;;;;-0.83;75.54;100501.16;2620845;54;20022;-65
2022/01/25 02:22:29;;;;;;;22.98;12.50;;;;;;;-0.89;75.42;100502.34;2619730;54;20053;-65
2022/01/25 02:25:00;;;;;;;20.15;12.60;;;;;;;-0.90;75.42;100492.88;2618972;54;20026;-65
2022/01/25 02:27:30;;;;;;;23.55;13.40;;;;;;;-0.93;75.86;100487.00;2619167;54;20569;-64
2022/01/25 02:30:00;;;;;;;20.48;12.52;;;;;;;-0.95;76.06;100494.84;2619397;54;20038;-65
2022/01/25 02:32:30;;;;;;;22.15;12.98;;;;;;;-0.94;76.08;100487.91;2618738;54;20035;-64
2022/01/25 02:35:02;;;;;;;23.38;13.23;;;;;;;-0.97;76.76;100493.25;2618831;54;20817;-65
2022/01/25 02:37:35;;;;;;;26.52;13.70;;;;;;;-1.01;76.82;100484.78;2618950;47;20034;-65
2022/01/25 02:40:06;;;;;;;26.77;14.52;;;;;;;-0.97;77.08;100493.25;2619711;54;20597;-65
2022/01/25 02:42:35;;;;;;;22.67;13.13;;;;;;;-0.96;77.04;100484.56;2622686;39;20403;-64
2022/01/25 02:45:10;;;;;;;22.40;13.18;;;;;;;-0.98;77.44;100486.38;2621901;54;20030;-64
2022/01/25 02:50:22;;;;;;;28.33;14.27;;;;;;;-1.13;77.26;100488.84;2621339;46;20566;-64
2022/01/25 02:52:54;;;;;;;28.23;15.10;;;;;;;-0.96;77.48;100481.94;2621828;47;20074;-63
2022/01/25 02:55:24;;;;;;;23.00;13.73;;;;;;;-0.88;77.38;100475.44;2623091;54;20055;-63
2022/01/25 02:57:54;;;;;;;30.08;14.77;;;;;;;-0.77;77.59;100488.72;2621060;54;20585;-63
2022/01/25 03:00:23;;;;;;;29.98;14.40;;;;;;;-0.65;77.36;100489.84;2618761;54;20034;-63
2022/01/25 03:02:53;;;;;;;43.63;17.25;;;;;;;-0.67;77.53;100491.69;2619262;39;20413;-63
2022/01/25 03:05:22;;;;;;;32.60;15.23;;;;;;;-0.60;77.69;100489.59;2618927;39;20759;-63
2022/01/25 03:07:56;;;;;;;36.03;16.00;;;;;;;-0.52;77.47;100495.25;2618590;54;20034;-63
2022/01/25 03:10:35;;;;;;;31.53;15.47;;;;;;;-0.45;77.49;100490.53;2619516;39;20426;-63
2022/01/25 03:13:07;;;;;;;29.17;15.05;;;;;;;-0.38;77.24;100486.69;2618575;54;20030;-63
2022/01/25 03:15:56;;;;;;;40.95;15.20;;;;;;;-0.30;76.89;100490.56;2618147;54;20799;-63
2022/01/25 03:18:39;;;;;;;39.33;17.70;;;;;;;-0.36;76.97;100488.31;2618984;39;20467;-63
2022/01/25 03:21:33;;;;;;;42.83;16.58;;;;;;;-0.38;77.33;100481.50;2618810;54;20030;-63
2022/01/25 03:24:07;;;;;;;45.95;17.02;;;;;;;-0.42;77.30;100475.63;2618544;54;20526;-63
2022/01/25 03:26:38;;;;;;;;;;;;;;;-0.38;77.99;100471.13;2618758;54;20038;-63
2022/01/25 03:29:07;;;;;;;37.83;16.38;;;;;;;-0.36;77.69;100474.47;2618526;54;19953;-63
2022/01/25 03:31:37;;;;;;;55.25;17.92;;;;;;;-0.56;77.55;100473.78;2622525;54;20042;-63
2022/01/25 03:34:07;;;;;;;101.65;21.13;;;;;;;-0.73;77.28;100475.59;2623006;54;20030;-63
2022/01/25 03:36:37;;;;;;;41.13;18.58;;;;;;;-0.88;78.42;100474.63;2622325;54;20082;-64
2022/01/25 03:39:09;;;;;;;42.53;17.38;;;;;;;-0.89;78.75;100472.94;2621765;54;20059;-64
2022/01/25 03:41:39;;;;;;;41.60;18.42;;;;;;;-0.92;77.98;100478.28;2621982;54;20030;-64
2022/01/25 03:44:09;;;;;;;43.40;17.00;;;;;;;-0.88;78.97;100478.03;2623379;54;20038;-64
2022/01/25 03:46:52;;;;;;;44.95;17.30;;;;;;;-0.72;79.28;100483.28;2622846;54;20038;-65
2022/01/25 03:52:06;;;;;;;38.95;16.75;;;;;;;-0.55;79.49;100477.22;2618257;47;20026;-63
2022/01/25 03:54:39;;;;;;;75.43;17.65;;;;;;;-0.40;79.46;100475.56;2618828;54;20562;-63
2022/01/25 03:57:09;;;;;;;45.47;16.17;;;;;;;-0.30;79.65;100469.78;2618603;54;20038;-63
2022/01/25 03:59:39;;;;;;;63.58;15.63;;;;;;;-0.22;79.36;100465.94;2618695;54;20064;-63
2022/01/25 04:02:09;;;;;;;48.10;15.35;;;;;;;-0.16;79.29;100478.63;2618918;54;20550;-62
2022/01/25 04:04:39;;;;;;;62.95;15.98;;;;;;;-0.16;79.08;100476.84;2618933;54;20035;-63
2022/01/25 04:07:12;;;;;;;36.83;13.88;;;;;;;-0.15;78.86;100482.88;2618461;54;20045;-63
2022/01/25 04:09:44;;;;;;;46.42;14.65;;;;;;;-0.22;79.23;100486.72;2618825;54;20557;-62
2022/01/25 04:12:17;;;;;;;40.03;15.38;;;;;;;-0.18;79.45;100485.63;2618275;54;20031;-63
2022/01/25 04:14:46;;;;;;;82.20;19.20;;;;;;;-0.20;79.52;100470.13;2618199;47;20023;-63
2022/01/25 04:17:19;;;;;;;88.50;17.13;;;;;;;-0.23;79.11;100478.09;2618463;54;20565;-63
2022/01/25 04:20:10;;;;;;;44.40;15.55;;;;;;;-0.18;79.50;100477.84;2618763;39;20138;-63
2022/01/25 04:25:23;;;;;;;46.72;15.05;;;;;;;-0.07;79.25;100485.91;2618546;54;20078;-63
2022/01/25 04:27:53;;;;;;;60.60;13.95;;;;;;;-0.13;79.39;100474.06;2618207;54;20022;-62
2022/01/25 04:30:23;;;;;;;45.00;13.23;;;;;;;-0.26;78.29;100473.88;2617875;54;20042;-62
2022/01/25 04:32:59;;;;;;;31.65;12.55;;;;;;;-0.40;78.75;100472.97;2617341;54;20022;-63
2022/01/25 04:35:44;;;;;;;23.20;13.38;;;;;;;-0.36;79.41;100467.53;2618711;54;20099;-62
2022/01/25 04:49:11;;;;;;;28.98;13.35;;;;;;;-0.01;78.90;100468.19;2618635;54;20073;-63
2022/01/25 04:54:37;;;;;;;25.40;12.90;;;;;;;-0.03;78.66;100457.03;2622678;54;20038;-64
2022/01/25 04:57:26;;;;;;;26.50;12.45;;;;;;;-0.05;78.94;100451.06;2618769;47;20070;-62
2022/01/25 05:00:03;;;;;;;34.35;13.27;;;;;;;0.01;78.90;100456.88;2618396;54;20067;-65
2022/01/25 05:02:43;;;;;;;26.65;12.50;;;;;;;-0.02;79.05;100457.88;2619291;54;20042;-62
2022/01/25 05:05:18;;;;;;;35.15;13.80;;;;;;;-0.03;78.65;100459.66;2620627;39;20129;-63
2022/01/25 05:07:54;;;;;;;33.90;12.30;;;;;;;0.01;78.55;100464.69;2619747;54;20026;-64
2022/01/25 05:10:24;;;;;;;47.83;14.63;;;;;;;0.02;78.50;100464.59;2618511;54;20779;-64
2022/01/25 05:13:12;;;;;;;40.13;13.60;;;;;;;0.06;78.46;100465.25;2617165;51;20502;-64
2022/01/25 05:16:05;;;;;;;56.03;16.13;;;;;;;0.04;78.50;100461.88;2618633;54;20027;-64
2022/01/25 05:18:43;;;;;;;55.65;16.65;;;;;;;0.04;78.36;100464.50;2618179;54;20057;-62
2022/01/25 05:23:55;;;;;;;69.35;16.50;;;;;;;-0.02;78.81;100471.72;2617628;54;20034;-62
2022/01/25 05:26:26;;;;;;;54.92;15.38;;;;;;;-0.03;78.59;100471.81;2617991;51;20046;-64
2022/01/25 05:29:02;;;;;;;59.95;16.35;;;;;;;-0.11;79.00;100468.78;2618377;54;20030;-62
2022/01/25 05:31:32;;;;;;;51.25;14.77;;;;;;;-0.21;78.53;100463.22;2618498;54;20037;-61
2022/01/25 05:34:02;;;;;;;43.10;14.18;;;;;;;-0.32;78.79;100458.63;2618139;54;20554;-62
2022/01/25 05:36:31;;;;;;;57.53;16.15;;;;;;;-0.25;79.72;100456.53;2618311;39;20439;-63
2022/01/25 05:39:06;;;;;;;44.88;14.45;;;;;;;-0.13;79.59;100457.63;2618007;54;20042;-63
2022/01/25 05:41:36;;;;;;;125.60;17.67;;;;;;;-0.20;78.97;100464.94;2618321;54;20038;-63
2022/01/25 05:44:23;;;;;;;64.93;15.80;;;;;;;-0.39;79.39;100461.66;2618576;39;20400;-64
2022/01/25 05:49:38;;;;;;;66.40;16.23;;;;;;;-0.45;79.96;100465.44;2617416;54;20065;-63
2022/01/25 05:52:10;;;;;;;53.85;15.88;;;;;;;-0.54;79.75;100460.69;2618671;54;20038;-63
2022/01/25 05:54:41;;;;;;;35.53;15.50;;;;;;;-0.50;80.20;100464.81;2617542;54;20038;-64
2022/01/25 05:57:11;;;;;;;45.10;18.08;;;;;;;-0.30;80.45;100480.16;2618006;54;20040;-64
2022/01/25 05:59:46;;;;;;;53.08;16.52;;;;;;;-0.19;80.46;100478.78;2617995;54;20550;-64
2022/01/25 06:02:20;;;;;;;44.35;18.05;;;;;;;-0.13;80.28;100483.63;2618514;39;20467;-63
2022/01/25 06:04:52;;;;;;;36.65;14.25;;;;;;;-0.10;79.85;100476.50;2618089;54;20179;-65
2022/01/25 06:07:21;;;;;;;63.25;15.15;;;;;;;-0.10;79.89;100486.91;2618058;54;20070;-64
2022/01/25 06:09:51;;;;;;;36.03;14.95;;;;;;;-0.13;80.11;100489.66;2618205;54;20086;-65
2022/01/25 06:12:21;;;;;;;43.70;15.10;;;;;;;-0.17;79.74;100490.75;2618575;39;20451;-64
2022/01/25 06:14:53;;;;;;;40.38;14.40;;;;;;;-0.14;79.92;100487.16;2618791;54;20078;-64
2022/01/25 06:17:22;;;;;;;33.42;14.60;;;;;;;-0.13;79.78;100486.22;2619187;54;20045;-64
2022/01/25 06:19:52;;;;;;;30.98;14.90;;;;;;;-0.04;79.81;100491.78;2620410;54;20046;-63
2022/01/25 06:22:22;;;;;;;42.92;15.40;;;;;;;-0.03;79.62;100503.00;2619616;39;20547;-65
2022/01/25 06:24:52;;;;;;;39.33;15.70;;;;;;;-0.07;79.47;100504.94;2619563;47;20059;-64
2022/01/25 06:27:21;;;;;;;44.72;16.67;;;;;;;-0.24;79.22;100499.81;2621618;39;20437;-64
2022/01/25 06:29:53;;;;;;;48.00;15.50;;;;;;;-0.26;79.94;100501.63;2619318;54;20041;-63
2022/01/25 06:32:23;;;;;;;46.88;15.05;;;;;;;-0.26;79.81;100501.63;2618540;54;20034;-64
2022/01/25 06:34:53;;;;;;;44.30;15.02;;;;;;;-0.24;79.96;100497.22;2620533;54;20042;-65
2022/01/25 06:37:22;;;;;;;34.75;14.30;;;;;;;-0.24;80.29;100488.59;2618927;54;20578;-63
2022/01/25 06:39:52;;;;;;;33.03;13.30;;;;;;;-0.24;79.74;100488.59;2618297;54;20041;-63
2022/01/25 06:42:22;;;;;;;57.75;16.25;;;;;;;-0.23;80.00;100490.25;2618243;54;20030;-62
2022/01/25 06:44:58;;;;;;;58.40;15.27;;;;;;;-0.22;79.84;100479.75;2618141;54;20034;-61
2022/01/25 06:47:27;;;;;;;25.70;12.35;;;;;;;-0.17;79.77;100485.53;2617770;54;20041;-62
2022/01/25 06:49:59;;;;;;;40.83;13.82;;;;;;;-0.07;79.86;100491.09;2618282;54;20038;-61
2022/01/25 06:52:29;;;;;;;35.17;11.85;;;;;;;0.03;79.93;100478.41;2619050;54;20576;-62
2022/01/25 06:54:58;;;;;;;26.77;12.40;;;;;;;0.06;79.45;100478.25;2618891;54;20027;-61
2022/01/25 06:57:28;;;;;;;25.85;12.80;;;;;;;0.05;79.26;100474.00;2618630;39;20427;-64
2022/01/25 07:00:00;;;;;;;65.20;13.88;;;;;;;0.03;79.50;100474.06;2618424;54;20566;-66
2022/01/25 07:02:30;;;;;;;32.72;13.65;;;;;;;-0.06;79.36;100472.81;2617805;54;20035;-63
2022/01/25 07:05:00;;;;;;;26.80;13.00;;;;;;;-0.04;79.74;100473.56;2618556;54;20050;-63
2022/01/25 07:07:29;;;;;;;68.55;13.73;;;;;;;0.04;79.90;100480.09;2618944;54;20027;-63
2022/01/25 07:09:59;;;;;;;29.27;13.75;;;;;;;0.09;79.63;100480.69;2621335;39;20434;-64
2022/01/25 07:12:29;;;;;;;45.40;14.45;;;;;;;0.12;78.96;100483.97;2622288;54;20570;-63
2022/01/25 07:15:01;;;;;;;35.67;13.73;;;;;;;0.14;79.69;100479.50;2622166;47;20034;-64
2022/01/25 07:17:31;;;;;;;34.55;12.73;;;;;;;0.09;79.12;100481.53;2621034;54;20043;-63
2022/01/25 07:20:00;;;;;;;28.83;13.27;;;;;;;0.13;79.61;100483.03;2619079;54;20137;-63
2022/01/25 07:22:30;;;;;;;31.60;13.73;;;;;;;0.03;79.02;100486.22;2619365;54;20046;-67
2022/01/25 07:25:00;;;;;;;29.88;13.20;;;;;;;-0.02;78.62;100497.72;2619263;54;20585;-63
2022/01/25 07:27:29;;;;;;;81.05;14.82;;;;;;;-0.04;79.05;100490.94;2619024;54;20632;-62
2022/01/25 07:30:02;;;;;;;24.17;11.43;;;;;;;-0.14;79.08;100494.94;2623972;54;20042;-63
2022/01/25 07:32:31;;;;;;;85.18;15.18;;;;;;;-0.06;79.38;100495.38;2622955;54;20582;-64
2022/01/25 07:35:05;;;;;;;52.92;13.35;;;;;;;-0.04;79.08;100493.53;2621838;54;20037;-64
2022/01/25 07:37:58;;;;;;;36.83;14.30;;;;;;;-0.14;78.85;100487.16;2621613;47;20035;-63
2022/01/25 07:40:29;;;;;;;47.67;13.90;;;;;;;-0.24;79.13;100489.41;2622261;54;20082;-64
2022/01/25 07:43:01;;;;;;;29.30;12.75;;;;;;;-0.22;79.76;100487.56;2622467;54;20075;-64
2022/01/25 07:45:42;;;;;;;27.65;12.77;;;;;;;-0.09;80.13;100485.13;2622342;54;20035;-64
2022/01/25 07:48:15;;;;;;;43.53;13.48;;;;;;;0.06;80.00;100483.47;2621562;46;20031;-65
2022/01/25 07:50:52;;;;;;;36.92;13.55;;;;;;;0.17;79.78;100478.50;2620083;54;20049;-64
2022/01/25 07:53:22;;;;;;;53.75;14.40;;;;;;;0.20;79.32;100484.38;2618188;54;20065;-64
2022/01/25 07:55:51;;;;;;;40.58;14.48;;;;;;;0.23;79.18;100486.78;2618761;54;20065;-63
2022/01/25 07:58:21;;;;;;;34.58;14.60;;;;;;;0.22;79.51;100487.72;2618684;54;20030;-63
2022/01/25 08:00:53;;;;;;;93.45;15.95;;;;;;;0.31;79.46;100495.94;2618204;54;20092;-65
2022/01/25 08:03:25;;;;;;;38.03;14.32;;;;;;;0.29;79.03;100497.81;2617918;47;20605;-65
2022/01/25 08:06:07;;;;;;;47.20;14.00;;;;;;;0.27;79.03;100494.44;2618238;46;20030;-64
2022/01/25 08:08:58;;;;;;;30.25;13.38;;;;;;;0.22;79.20;100494.69;2617820;47;20043;-64
2022/01/25 08:11:50;;;;;;;35.03;14.15;;;;;;;0.28;79.18;100493.50;2618255;54;20041;-64
2022/01/25 08:14:34;;;;;;;41.92;15.15;;;;;;;0.38;79.33;100489.47;2618413;54;20577;-63
2022/01/25 08:17:16;;;;;;;39.00;16.38;;;;;;;0.53;78.86;100490.34;2619622;54;20038;-64
2022/01/25 08:19:49;;;;;;;36.72;16.08;;;;;;;0.65;78.85;100487.03;2620476;54;20022;-63
2022/01/25 08:22:35;;;;;;;47.38;16.90;;;;;;;0.72;78.76;100485.78;2619406;54;20038;-64
2022/01/25 08:25:12;;;;;;;40.42;16.83;;;;;;;0.75;78.60;100496.03;2620498;54;20432;-65
2022/01/25 08:27:52;;;;;;;46.85;18.65;;;;;;;0.79;78.77;100487.09;2619458;54;20124;-63
2022/01/25 08:30:27;;;;;;;46.70;18.27;;;;;;;0.74;78.07;100483.94;2620809;54;20631;-64
2022/01/25 08:33:06;;;;;;;46.63;19.13;;;;;;;0.71;78.55;100490.16;2620302;54;20168;-64
2022/01/25 08:35:48;;;;;;;;;;;;;;;0.75;78.99;100488.22;2619982;54;20041;-64
2022/01/25 08:38:18;;;;;;;46.72;18.80;;;;;;;0.85;78.73;100486.72;2620101;54;19998;-65
2022/01/25 08:40:48;;;;;;;54.40;21.33;;;;;;;0.99;78.05;100493.75;2620311;54;20034;-64
2022/01/25 08:43:26;;;;;;;42.80;17.25;;;;;;;0.74;77.81;100499.56;2620487;54;20038;-65
2022/01/25 08:45:57;;;;;;;54.38;19.17;;;;;;;0.45;78.00;100503.81;2620268;54;20635;-65
2022/01/25 08:48:32;;;;;;;50.17;20.67;;;;;;;0.23;78.71;100507.59;2620257;46;20041;-64
2022/01/25 08:51:35;;;;;;;53.30;18.05;;;;;;;0.11;78.88;100497.88;2619101;54;20030;-63
2022/01/25 08:54:19;;;;;;;50.40;21.63;;;;;;;0.29;79.30;100497.81;2619192;54;20038;-63
2022/01/25 08:57:06;;;;;;;44.97;19.77;;;;;;;0.52;79.52;100499.94;2618049;47;20034;-64
2022/01/25 09:00:02;;;;;;;42.53;18.33;;;;;;;0.69;79.60;100501.56;2618085;54;20030;-63
2022/01/25 09:02:32;;;;;;;46.00;18.52;;;;;;;0.76;79.22;100505.50;2618089;47;20031;-64
2022/01/25 09:05:05;;;;;;;41.92;17.73;;;;;;;0.78;78.55;100497.63;2618693;54;20038;-63
2022/01/25 09:07:34;;;;;;;47.08;19.08;;;;;;;0.88;78.75;100501.34;2618905;39;20426;-62
2022/01/25 09:10:06;;;;;;;49.72;20.33;;;;;;;1.02;78.39;100505.75;2618655;54;20589;-64
2022/01/25 09:12:35;;;;;;;48.63;18.77;;;;;;;0.98;78.04;100510.31;2618383;54;20034;-66
2022/01/25 09:15:05;;;;;;;38.30;18.80;;;;;;;0.94;78.36;100507.06;2618810;54;20030;-61
2022/01/25 09:17:35;;;;;;;45.60;19.08;;;;;;;0.92;78.54;100508.88;2618198;54;20090;-62
2022/01/25 09:20:08;;;;;;;42.22;18.77;;;;;;;1.03;78.14;100510.03;2618111;47;20026;-62
2022/01/25 09:22:38;;;;;;;44.88;20.98;;;;;;;1.01;78.08;100517.09;2618355;54;20049;-62
2022/01/25 09:25:27;;;;;;;48.90;21.58;;;;;;;1.07;78.50;100514.16;2617989;54;20034;-64
2022/01/25 09:27:58;;;;;;;49.60;21.90;;;;;;;1.20;78.44;100517.69;2618726;54;20045;-63
2022/01/25 09:30:27;;;;;;;44.22;20.95;;;;;;;1.19;77.60;100516.03;2620079;54;20026;-63
2022/01/25 09:32:57;;;;;;;41.60;20.80;;;;;;;1.23;77.85;100520.13;2619821;47;20074;-63
2022/01/25 09:35:29;;;;;;;52.45;21.33;;;;;;;1.24;77.52;100519.19;2618446;54;20053;-65
2022/01/25 09:38:00;;;;;;;67.65;21.35;;;;;;;1.08;76.83;100515.81;2618263;54;20026;-64
2022/01/25 09:40:31;;;;;;;59.10;23.70;;;;;;;0.93;77.48;100514.94;2618352;54;20027;-65
2022/01/25 09:43:00;;;;;;;49.47;21.77;;;;;;;1.04;77.74;100519.53;2618158;54;20042;-64
2022/01/25 09:45:30;;;;;;;55.88;21.92;;;;;;;0.96;77.26;100519.97;2617860;54;20030;-66
2022/01/25 09:48:00;;;;;;;52.47;24.65;;;;;;;0.86;77.56;100518.84;2617349;54;20035;-65
2022/01/25 09:50:40;;;;;;;55.60;20.70;;;;;;;0.88;77.47;100510.00;2618205;54;20030;-65
2022/01/25 09:53:10;;;;;;;43.92;20.92;;;;;;;0.86;77.80;100518.84;2618239;54;20031;-65
2022/01/25 09:55:42;;;;;;;50.10;22.33;;;;;;;1.08;78.38;100523.63;2618283;54;20030;-63
2022/01/25 09:58:13;;;;;;;46.65;21.73;;;;;;;1.20;78.13;100522.91;2618664;54;20061;-64
2022/01/25 10:00:47;;;;;;;46.58;23.27;;;;;;;1.13;77.59;100519.81;2618505;54;20102;-63
2022/01/25 10:03:24;;;;;;;41.80;20.35;;;;;;;1.11;78.11;100520.84;2618673;54;20184;-65
2022/01/25 10:06:00;;;;;;;49.17;22.58;;;;;;;1.23;78.12;100523.56;2621791;54;20118;-63
2022/01/25 10:08:33;;;;;;;52.17;23.50;;;;;;;1.27;77.86;100526.81;2618881;54;20110;-63
2022/01/25 10:11:04;;;;;;;95.82;23.10;;;;;;;1.28;76.91;100520.69;2618668;54;20034;-63
2022/01/25 10:13:36;;;;;;;63.38;24.63;;;;;;;0.78;76.75;100524.50;2618248;54;20032;-63
2022/01/25 10:16:09;;;;;;;75.47;22.55;;;;;;;0.81;77.71;100526.88;2618105;54;20046;-65
2022/01/25 10:18:45;;;;;;;62.65;24.25;;;;;;;0.97;78.31;100530.28;2617713;54;20038;-65
2022/01/25 10:21:21;;;;;;;45.55;22.15;;;;;;;1.07;78.22;100521.97;2618469;54;20063;-64
2022/01/25 10:24:07;;;;;;;47.15;20.58;;;;;;;1.12;78.51;100531.16;2618961;39;20443;-64
2022/01/25 10:26:39;;;;;;;50.50;22.85;;;;;;;1.23;78.27;100527.94;2618838;54;20031;-64
2022/01/25 10:29:15;;;;;;;44.75;20.95;;;;;;;1.20;77.85;100531.56;2618725;54;20118;-64
2022/01/25 10:31:48;;;;;;;41.28;22.50;;;;;;;1.30;78.00;100529.22;2619003;54;20035;-64
2022/01/25 10:34:20;;;;;;;52.10;19.70;;;;;;;1.32;77.48;100531.75;2618840;54;20042;-64
2022/01/25 10:36:54;;;;;;;40.20;20.75;;;;;;;1.36;77.55;100531.47;2618915;54;20045;-63
2022/01/25 10:39:25;;;;;;;39.53;19.10;;;;;;;1.46;77.67;100524.78;2618953;54;20034;-64
2022/01/25 10:42:04;;;;;;;37.67;19.00;;;;;;;1.52;77.23;100527.97;2619046;54;20036;-65
2022/01/25 10:44:51;;;;;;;43.22;21.63;;;;;;;1.55;77.21;100528.63;2619294;54;20038;-64
2022/01/25 10:47:38;;;;;;;38.60;19.80;;;;;;;1.53;77.08;100524.41;2618568;54;20035;-65
2022/01/25 10:50:15;;;;;;;38.00;19.33;;;;;;;1.58;76.92;100531.03;2618609;54;20030;-65
2022/01/25 10:52:49;;;;;;;37.80;19.75;;;;;;;1.54;77.20;100524.31;2619048;54;20129;-66
2022/01/25 10:55:19;;;;;;;35.90;19.73;;;;;;;1.55;76.78;100530.38;2619493;39;20434;-65
2022/01/25 10:57:59;;;;;;;34.28;18.08;;;;;;;1.54;76.79;100521.72;2618690;54;20574;-63
2022/01/25 11:00:34;;;;;;;44.42;20.23;;;;;;;1.63;76.70;100528.13;2618784;54;20045;-64
2022/01/25 11:03:05;;;;;;;40.33;20.40;;;;;;;1.63;76.90;100518.56;2618883;54;20035;-64
2022/01/25 11:05:37;;;;;;;41.85;21.38;;;;;;;1.64;76.65;100527.22;2618670;54;20022;-65
2022/01/25 11:08:17;;;;;;;40.08;20.88;;;;;;;1.66;76.73;100534.00;2618772;54;20049;-63
2022/01/25 11:10:54;;;;;;;43.35;20.48;;;;;;;1.68;76.54;100523.50;2618884;54;20039;-64
2022/01/25 11:13:35;;;;;;;34.38;19.25;;;;;;;1.81;76.26;100527.03;2618889;54;20035;-61
2022/01/25 11:16:08;;;;;;;40.55;19.02;;;;;;;1.85;75.99;100510.25;2618621;54;20594;-64
2022/01/25 11:18:39;;;;;;;30.80;17.77;;;;;;;1.94;76.25;100525.31;2618397;47;20030;-64
2022/01/25 11:21:11;;;;;;;33.10;18.65;;;;;;;2.05;75.65;100522.06;2618371;54;20061;-65
2022/01/25 11:23:45;;;;;;;36.33;18.95;;;;;;;2.05;75.19;100521.22;2618493;47;20027;-65
2022/01/25 11:26:16;;;;;;;34.72;19.10;;;;;;;2.07;75.66;100521.94;2618478;47;20023;-65
2022/01/25 11:28:47;;;;;;;34.72;19.25;;;;;;;2.17;75.18;100529.13;2618304;54;20163;-64
2022/01/25 11:31:23;;;;;;;33.08;19.67;;;;;;;2.27;75.35;100525.91;2618044;47;20031;-66
2022/01/25 11:33:55;;;;;;;36.88;20.65;;;;;;;2.32;75.39;100511.63;2618168;54;20033;-64
2022/01/25 11:36:25;;;;;;;33.95;18.98;;;;;;;2.36;75.29;100515.72;2618607;39;20667;-65
2022/01/25 11:38:58;;;;;;;34.65;19.63;;;;;;;2.33;75.31;100513.31;2618339;54;20549;-64
2022/01/25 11:41:29;;;;;;;35.15;19.90;;;;;;;2.22;73.63;100503.56;2618439;47;20069;-64
2022/01/25 11:44:09;;;;;;;38.45;20.92;;;;;;;2.02;74.94;100508.38;2618217;54;20538;-65
2022/01/25 11:46:40;;;;;;;37.28;21.30;;;;;;;2.06;75.23;100504.63;2618393;54;20026;-64
2022/01/25 11:49:17;;;;;;;35.92;19.05;;;;;;;2.12;75.08;100507.69;2619009;54;20626;-64
2022/01/25 11:51:47;;;;;;;35.70;20.08;;;;;;;2.22;75.13;100505.34;2621202;54;20042;-65
2022/01/25 11:54:20;;;;;;;42.03;21.50;;;;;;;2.27;74.61;100503.25;2621563;54;20027;-65
2022/01/25 11:56:50;;;;;;;42.13;22.98;;;;;;;2.16;74.98;100505.72;2621286;54;20054;-65
2022/01/25 11:59:19;;;;;;;37.67;20.90;;;;;;;2.20;75.42;100505.44;2619262;54;20045;-66
2022/01/25 12:01:53;;;;;;;41.65;22.73;;;;;;;2.28;75.57;100504.94;2617979;47;20577;-65
2022/01/25 12:04:22;;;;;;;39.45;22.70;;;;;;;2.31;75.26;100502.13;2618112;54;20053;-64
2022/01/25 12:07:01;;;;;;;42.75;23.77;;;;;;;2.36;74.97;100489.63;2618168;54;20038;-64
2022/01/25 12:09:46;;;;;;;42.13;23.15;;;;;;;2.47;74.66;100483.72;2618026;54;20030;-64
2022/01/25 12:12:18;;;;;;;49.63;26.27;;;;;;;2.38;74.52;100485.16;2618598;54;20039;-67
2022/01/25 12:14:51;;;;;;;47.95;26.73;;;;;;;2.52;74.65;100486.03;2618302;54;20026;-64
2022/01/25 12:17:23;;;;;;;44.28;24.60;;;;;;;2.60;74.51;100473.31;2618039;54;20038;-65
2022/01/25 12:19:57;;;;;;;46.28;24.40;;;;;;;2.62;74.38;100467.06;2618754;54;20027;-63
2022/01/25 17:18:50;;;;;;;51.17;23.38;;;;;;;1.37;79.38;100454.16;2619451;47;20034;-72
2022/01/25 17:21:39;;;;;;;56.53;24.17;;;;;;;1.39;79.33;100453.13;2620779;54;20114;-70
2022/01/25 17:24:09;;;;;;;75.45;25.90;;;;;;;1.32;79.35;100454.44;2619497;47;20291;-70
2022/01/25 17:26:39;;;;;;;66.93;29.67;;;;;;;1.32;79.76;100457.03;2620195;47;20042;-68
2022/01/25 17:29:09;;;;;;;74.13;29.73;;;;;;;1.40;79.80;100453.97;2620662;47;20026;-70
2022/01/25 17:31:39;;;;;;;56.90;25.63;;;;;;;1.42;80.09;100465.13;2621309;54;20030;-70
2022/01/25 17:34:14;;;;;;;56.25;25.70;;;;;;;1.44;79.98;100460.66;2620619;47;20023;-69
2022/01/25 17:36:45;;;;;;;60.72;24.38;;;;;;;1.45;79.77;100454.50;2618799;54;20037;-70
2022/01/25 17:39:16;;;;;;;59.67;26.38;;;;;;;1.43;79.73;100462.44;2618579;54;20155;-69
2022/01/25 17:41:46;;;;;;;52.28;23.52;;;;;;;1.43;79.60;100461.59;2620245;54;20046;-70
2022/01/25 17:44:16;;;;;;;61.10;25.85;;;;;;;1.39;79.71;100453.13;2620344;54;20035;-71
2022/01/25 17:46:46;;;;;;;56.05;23.45;;;;;;;1.40;79.73;100462.63;2619660;54;20038;-71
2022/01/25 17:49:20;;;;;;;60.03;24.48;;;;;;;1.36;79.94;100468.13;2618816;54;20037;-71